createdAt,value
2023-04-25T05:13:16.478Z,61.01
2023-04-25T05:16:47.299Z,60.49
2023-04-25T05:20:13.364Z,60.36
2023-04-25T05:23:37.583Z,60.34
2023-04-25T05:27:02.191Z,60.09
2023-04-25T05:30:06.086Z,60.17
2023-04-25T05:33:13.263Z,60.80
2023-04-25T05:36:16.155Z,60.94
2023-04-25T05:39:20.307Z,60.18
2023-04-25T05:42:43.161Z,58.54
2023-04-25T05:46:17.726Z,62.36
2023-04-25T05:49:38.989Z,57.65
2023-04-25T05:52:58.665Z,60.68
2023-04-25T05:56:21.196Z,58.84
2023-04-25T05:59:27.213Z,58.48
2023-04-25T06:02:33.084Z,60.75
2023-04-25T06:05:35.569Z,59.09
2023-04-25T06:08:38.843Z,59.50
2023-04-25T06:11:41.071Z,59.64
2023-04-25T06:14:46.487Z,61.03
2023-04-25T06:17:50.493Z,61.65
2023-04-25T06:20:52.709Z,61.95
2023-04-25T06:23:54.885Z,62.99
2023-04-25T06:26:59.430Z,63.54
2023-04-25T06:30:01.763Z,62.79
2023-04-25T06:33:09.667Z,63.76
2023-04-25T06:36:13.050Z,64.30
2023-04-25T06:39:17.514Z,66.15
2023-04-25T06:42:19.610Z,65.06
2023-04-25T06:45:28.210Z,65.43
2023-04-25T06:48:30.145Z,66.13
2023-04-25T06:51:32.772Z,65.04
2023-04-25T06:54:34.842Z,64.89
2023-04-25T06:57:45.696Z,65.72
2023-04-25T07:01:37.063Z,65.14
2023-04-25T07:04:44.181Z,65.04
2023-04-25T07:07:46.677Z,63.82
2023-04-25T07:10:50.119Z,63.26
2023-04-25T07:13:54.931Z,65.68
2023-04-25T07:17:00.030Z,65.73
2023-04-25T07:20:04.987Z,64.13
2023-04-25T07:23:10.386Z,65.33
2023-04-25T07:26:13.473Z,66.21
2023-04-25T07:29:38.493Z,66.46
2023-04-25T07:32:50.033Z,67.38
2023-04-25T07:35:56.920Z,67.08
2023-04-25T07:38:59.103Z,67.02
2023-04-25T07:42:03.743Z,66.17
2023-04-25T07:45:06.810Z,65.29
2023-04-25T07:48:18.135Z,63.67
2023-04-25T07:51:32.946Z,61.65
2023-04-25T07:54:41.452Z,63.66
2023-04-25T07:57:55.745Z,63.79
2023-04-25T08:00:58.486Z,65.86
2023-04-25T08:04:15.084Z,61.42
2023-04-25T08:07:46.376Z,60.95
2023-04-25T08:10:51.445Z,61.17
2023-04-25T08:13:54.455Z,59.94
2023-04-25T08:16:57.756Z,60.49
2023-04-25T08:20:02.053Z,60.20
2023-04-25T08:23:08.790Z,59.29
2023-04-25T08:26:31.561Z,59.84
2023-04-25T08:29:37.091Z,63.56
2023-04-25T08:33:06.686Z,66.72
2023-04-25T08:36:39.094Z,68.36
2023-04-25T08:39:58.264Z,67.68
2023-04-25T08:43:04.681Z,66.02
2023-04-25T08:46:11.112Z,65.76
2023-04-25T08:49:22.641Z,65.60
2023-04-25T08:52:31.727Z,65.83
2023-04-25T08:55:34.625Z,65.64
2023-04-25T08:58:39.332Z,65.61
2023-04-25T09:01:42.080Z,65.91
2023-04-25T09:04:45.701Z,65.07
2023-04-25T09:07:50.474Z,65.86
2023-04-25T09:10:53.181Z,64.03
2023-04-25T09:14:26.835Z,62.83
2023-04-25T09:17:41.371Z,62.32
2023-04-25T09:21:00.680Z,62.65
2023-04-25T09:24:08.174Z,62.66
2023-04-25T09:27:12.700Z,62.63
2023-04-25T09:30:16.796Z,62.14
2023-04-25T09:33:35.995Z,63.00
2023-04-25T09:36:41.217Z,60.23
2023-04-25T09:40:07.405Z,62.58
2023-04-25T09:43:26.084Z,61.19
2023-04-25T09:46:34.993Z,60.22
2023-04-25T09:49:41.743Z,61.69
2023-04-25T09:52:46.787Z,59.09
2023-04-25T09:55:59.223Z,61.45
2023-04-25T09:59:02.571Z,67.88
2023-04-25T10:02:07.036Z,69.50
2023-04-25T10:05:13.782Z,72.04
2023-04-25T10:08:18.997Z,73.61
2023-04-25T10:11:29.224Z,74.68
2023-04-25T10:14:32.499Z,73.73
2023-04-25T10:17:36.196Z,75.04
2023-04-25T10:20:39.041Z,71.35
2023-04-25T10:23:41.544Z,68.44
2023-04-25T10:26:43.938Z,64.19
2023-04-25T10:29:45.868Z,59.96
2023-04-25T10:32:48.436Z,60.85
2023-04-25T10:35:50.488Z,64.51
2023-04-25T10:38:54.192Z,65.13
2023-04-25T10:42:00.177Z,67.26
2023-04-25T10:45:05.506Z,63.71
2023-04-25T10:48:29.534Z,66.07
2023-04-25T10:51:47.259Z,65.25
2023-04-25T10:54:58.280Z,64.61
2023-04-25T10:58:02.083Z,64.18
2023-04-25T11:01:05.429Z,64.11
2023-04-25T11:04:32.584Z,63.82
2023-04-25T11:08:08.548Z,64.40
2023-04-25T11:11:11.281Z,64.01
2023-04-25T11:14:13.363Z,63.90
2023-04-25T11:17:15.886Z,62.85
2023-04-25T11:20:18.095Z,63.49
2023-04-25T11:23:20.662Z,63.20
2023-04-25T11:26:23.430Z,63.37
2023-04-25T11:29:33.542Z,64.08
2023-04-25T11:32:38.393Z,62.71
2023-04-25T11:35:42.064Z,62.97
2023-04-25T11:38:44.406Z,63.83
2023-04-25T11:41:50.345Z,61.37
2023-04-25T11:44:53.121Z,63.42
2023-04-25T11:47:56.548Z,59.80
2023-04-25T11:51:01.397Z,60.93
2023-04-25T11:54:03.893Z,62.82
2023-04-25T11:57:06.299Z,61.28
2023-04-25T12:00:14.511Z,60.83
2023-04-25T12:03:20.580Z,61.38
2023-04-25T12:06:28.530Z,62.35
2023-04-25T12:09:32.367Z,56.37
2023-04-25T12:12:36.418Z,57.47
2023-04-25T12:15:44.084Z,61.40
2023-04-25T12:18:49.030Z,62.52
2023-04-25T12:21:57.944Z,60.80
2023-04-25T12:25:01.810Z,59.33
2023-04-25T12:28:20.935Z,60.01
2023-04-25T12:31:23.865Z,59.88
2023-04-25T12:34:26.418Z,59.29
2023-04-25T12:37:29.831Z,56.38
2023-04-25T12:40:32.184Z,58.38
2023-04-25T12:43:34.701Z,58.39
2023-04-25T12:46:51.169Z,61.32
2023-04-25T12:50:08.120Z,58.25
2023-04-25T12:53:10.928Z,58.11
2023-04-25T12:56:13.613Z,56.39
2023-04-25T12:59:18.092Z,55.89
2023-04-25T13:02:29.587Z,56.39
2023-04-25T13:05:32.488Z,57.06
2023-04-25T13:08:38.943Z,56.80
2023-04-25T13:11:42.086Z,59.04
2023-04-25T13:14:44.624Z,57.46
2023-04-25T13:17:46.664Z,58.23
2023-04-25T13:20:50.075Z,56.28
2023-04-25T13:23:55.289Z,56.14
2023-04-25T13:26:57.901Z,55.55
2023-04-25T13:30:00.401Z,55.45
2023-04-25T13:33:04.420Z,54.43
2023-04-25T13:36:07.065Z,55.08
2023-04-25T13:39:09.514Z,54.20
2023-04-25T13:42:13.694Z,55.55
2023-04-25T13:45:16.086Z,54.07
2023-04-25T13:48:21.817Z,56.74
2023-04-25T13:51:32.799Z,56.30
2023-04-25T13:54:34.802Z,53.34
2023-04-25T13:57:39.258Z,55.62
2023-04-25T14:00:44.561Z,56.86
2023-04-25T14:03:47.477Z,56.17
2023-04-25T14:06:49.473Z,56.71
2023-04-25T14:09:51.913Z,57.17
2023-04-25T14:12:53.968Z,58.49
2023-04-25T14:15:56.401Z,58.83
2023-04-25T14:19:02.156Z,59.44
2023-04-25T14:22:04.929Z,60.94
2023-04-25T14:25:07.261Z,61.23
2023-04-25T14:28:10.699Z,59.10
2023-04-25T14:31:12.834Z,65.57
2023-04-25T14:34:15.483Z,61.17
2023-04-25T14:37:17.529Z,58.96
2023-04-25T14:40:23.271Z,56.97
2023-04-25T14:43:25.649Z,57.30
2023-04-25T14:46:28.395Z,56.65
2023-04-25T14:49:30.346Z,56.23
2023-04-25T14:52:33.106Z,56.43
2023-04-25T14:55:35.219Z,57.02
2023-04-25T14:58:38.777Z,57.80
2023-04-25T15:01:41.464Z,55.17
2023-04-25T15:04:43.937Z,55.86
2023-04-25T15:07:46.344Z,56.76
2023-04-25T15:10:48.961Z,57.13
2023-04-25T15:13:51.171Z,57.34
2023-04-25T15:16:54.025Z,58.63
2023-04-25T15:19:56.013Z,58.25
2023-04-25T15:22:59.117Z,60.30
2023-04-25T15:26:01.187Z,57.44
2023-04-25T15:29:06.612Z,57.18
2023-04-25T15:32:08.890Z,56.06
2023-04-25T15:35:11.875Z,57.43
2023-04-25T15:38:14.638Z,56.60
2023-04-25T15:41:18.069Z,57.18
2023-04-25T15:44:20.443Z,57.20
2023-04-25T15:47:25.200Z,58.04
2023-04-25T15:50:27.507Z,57.84
2023-04-25T15:53:30.320Z,57.13
2023-04-25T15:56:32.545Z,57.76
2023-04-25T15:59:34.902Z,59.84
2023-04-25T16:02:38.635Z,60.31
2023-04-25T16:05:42.729Z,60.03
2023-04-25T16:08:44.759Z,60.32
2023-04-25T16:11:47.254Z,60.45
2023-04-25T16:14:49.195Z,59.98
2023-04-25T16:17:51.647Z,60.32
2023-04-25T16:20:54.452Z,60.05
2023-04-25T16:23:56.877Z,59.76
2023-04-25T16:26:59.205Z,61.32
2023-04-25T16:30:02.403Z,62.69
2023-04-25T16:33:04.560Z,58.87
2023-04-25T16:36:07.583Z,59.60
2023-04-25T16:39:09.990Z,59.40
2023-04-25T16:42:12.090Z,60.05
2023-04-25T16:45:14.714Z,61.29
2023-04-25T16:48:19.939Z,62.12
2023-04-25T16:51:22.054Z,61.54
2023-04-25T16:54:27.331Z,63.33
2023-04-25T16:57:29.294Z,63.03
2023-04-25T17:00:31.725Z,64.83
2023-04-25T17:03:35.439Z,59.23
2023-04-25T17:06:39.470Z,63.03
2023-04-25T17:09:41.583Z,60.08
2023-04-25T17:12:43.877Z,55.33
2023-04-25T17:15:45.911Z,61.92
2023-04-25T17:18:48.987Z,58.29
2023-04-25T17:21:51.635Z,58.55
2023-04-25T17:24:54.856Z,59.66
2023-04-25T17:27:58.803Z,60.24
2023-04-25T17:31:01.836Z,61.39
2023-04-25T17:34:05.086Z,62.71
2023-04-25T17:37:09.692Z,62.78
2023-04-25T17:40:12.347Z,63.04
2023-04-25T17:43:14.623Z,63.39
2023-04-25T17:46:16.677Z,63.70
2023-04-25T17:49:19.101Z,66.35
2023-04-25T17:52:22.130Z,67.83
2023-04-25T17:55:25.337Z,67.71
2023-04-25T17:58:28.638Z,67.68
2023-04-25T18:01:31.219Z,67.71
2023-04-25T18:04:33.411Z,67.86
2023-04-25T18:07:36.391Z,67.59
2023-04-25T18:10:39.136Z,66.14
2023-04-25T18:13:41.766Z,65.25
2023-04-25T18:16:44.924Z,65.04
2023-04-25T18:19:50.209Z,64.19
2023-04-25T18:22:52.386Z,62.74
2023-04-25T18:25:55.214Z,63.31
2023-04-25T18:28:57.372Z,63.73
2023-04-25T18:31:59.842Z,61.83
2023-04-25T18:35:04.098Z,60.11
2023-04-25T18:38:06.408Z,59.90
2023-04-25T18:41:33.800Z,60.07
2023-04-25T18:44:33.854Z,61.38
2023-04-25T18:47:35.854Z,63.84
2023-04-25T18:50:39.859Z,68.09
2023-04-25T18:53:42.023Z,69.88
2023-04-25T18:56:45.356Z,71.59
2023-04-25T18:59:47.968Z,71.16
2023-04-25T19:02:51.447Z,70.58
2023-04-25T19:05:53.568Z,68.51
2023-04-25T19:08:57.840Z,65.67
2023-04-25T19:11:59.825Z,64.32
2023-04-25T19:15:02.321Z,63.00
2023-04-25T19:18:05.323Z,62.35
2023-04-25T19:21:08.716Z,61.02
2023-04-25T19:24:11.512Z,60.60
2023-04-25T19:27:14.124Z,62.54
2023-04-25T19:30:16.420Z,61.80
2023-04-25T19:33:19.579Z,60.93
2023-04-25T19:36:22.306Z,60.39
2023-04-25T19:41:25.705Z,59.83
2023-04-25T19:44:28.075Z,59.59
2023-04-25T19:47:30.124Z,59.59
2023-04-25T19:50:32.593Z,59.84
2023-04-25T19:53:34.636Z,59.74
2023-04-25T19:56:36.968Z,59.64
2023-04-25T19:59:40.776Z,59.53
2023-04-25T20:02:45.583Z,59.57
2023-04-25T20:05:47.896Z,59.44
2023-04-25T20:08:53.460Z,59.31
2023-04-25T20:11:55.476Z,59.30
2023-04-25T20:14:58.488Z,59.13
2023-04-25T20:18:00.719Z,59.42
2023-04-25T20:21:03.099Z,59.83
2023-04-25T20:24:05.497Z,59.80
2023-04-25T20:27:08.034Z,59.42
2023-04-25T20:30:11.465Z,59.90
2023-04-25T20:33:14.686Z,59.48
2023-04-25T20:36:16.806Z,58.56
2023-04-25T20:39:19.902Z,59.08
2023-04-25T20:42:22.027Z,60.06
2023-04-25T20:45:26.228Z,60.65
2023-04-25T20:48:29.240Z,60.50
2023-04-25T20:51:32.590Z,60.34
2023-04-25T20:54:34.621Z,60.27
2023-04-25T20:57:37.287Z,60.14
2023-04-25T21:00:39.238Z,60.01
2023-04-25T21:03:41.919Z,59.99
2023-04-25T21:06:44.477Z,59.89
2023-04-25T21:09:47.967Z,59.81
2023-04-25T21:12:54.109Z,59.75
2023-04-25T21:15:57.091Z,59.75
2023-04-25T21:19:00.333Z,59.69
2023-04-25T21:22:03.673Z,59.38
2023-04-25T21:25:06.702Z,59.67
2023-04-25T21:28:09.400Z,59.93
2023-04-25T21:31:15.539Z,59.50
2023-04-25T21:34:18.263Z,59.56
2023-04-25T21:37:20.372Z,59.57
2023-04-25T21:40:22.744Z,59.36
2023-04-25T21:43:24.897Z,58.40
2023-04-25T21:46:27.139Z,52.20
2023-04-25T21:49:29.763Z,55.11
2023-04-25T21:52:32.320Z,55.24
2023-04-25T21:55:34.298Z,59.92
2023-04-25T21:58:36.623Z,63.80
2023-04-25T22:01:38.761Z,66.29
2023-04-25T22:04:45.416Z,70.05
2023-04-25T22:07:48.272Z,64.66
2023-04-25T22:10:50.638Z,61.60
2023-04-25T22:13:52.516Z,59.10
2023-04-25T22:16:56.079Z,59.05
2023-04-25T22:19:58.064Z,60.24
2023-04-25T22:23:01.054Z,61.44
2023-04-25T22:26:03.915Z,62.29
2023-04-25T22:29:06.937Z,61.12
2023-04-25T22:32:09.494Z,60.44
2023-04-25T22:35:12.162Z,60.12
2023-04-25T22:38:14.155Z,59.80
2023-04-25T22:41:16.338Z,59.69
2023-04-25T22:44:18.408Z,59.43
2023-04-25T22:47:23.015Z,59.14
2023-04-25T22:50:25.806Z,59.14
2023-04-25T22:53:27.955Z,59.00
2023-04-25T22:56:30.452Z,58.92
2023-04-25T22:59:32.642Z,59.03
2023-04-25T23:02:35.620Z,58.97
2023-04-25T23:05:38.814Z,58.97
2023-04-25T23:08:41.903Z,58.96
2023-04-25T23:11:44.050Z,58.86
2023-04-25T23:14:51.094Z,58.86
2023-04-25T23:17:53.784Z,58.93
2023-04-25T23:20:55.710Z,58.91
2023-04-25T23:23:57.960Z,58.86
2023-04-25T23:26:59.904Z,58.89
2023-04-25T23:30:02.197Z,58.83
2023-04-25T23:33:04.233Z,58.90
2023-04-25T23:36:07.544Z,58.78
2023-04-25T23:39:10.618Z,58.83
2023-04-25T23:42:12.866Z,58.83
2023-04-25T23:45:16.644Z,58.99
2023-04-25T23:48:18.904Z,58.96
2023-04-25T23:51:21.078Z,58.93
2023-04-25T23:54:26.763Z,58.91
2023-04-25T23:57:28.737Z,59.01
